»·PEaware :: UAL935 KCOS-KDEN

UAL935 :: KCOS-KDEN

FLIGHT INFORMATION

Flight Status: Arrived
Operator:
United Airlines
More flights by this operator :: More flights under this callsign
Pilot: Michael S. (20314)
Aircraft: AIRBUS A321
(A321)
More flights by this aircraft type
Origin: KCOS City Of Colorado Springs Mun
United States
Destination: KDEN Denver Intl
United States
More flights between these airports :: More routes between these airports
Route: COS6 ADANE V389 LUFSE JEFEL
File this flight plan on PilotEdge
Remarks: RMK / SIMBRIEF
Altitude:
(Current/Filed)
12,000ft
Speed:
(Current/Filed)
361kts
Departed: 25-Aug-22 01:38 PM
Arrived: 25-Aug-22 02:05 PM
Distance/Time
Traveled:
64nm/0:27
Distance/Time
To Go:
Arrived

Flight Plot

Page will automatically refresh every two minutes.

Flight plan parsing failed; only flown route is shown


Map Options




Map Legend


Flown Route
Filed Route
Departure Airport
Arrival Airport
Navaid (VOR, NDB)
Fix

Horizontal Profiles

Position Reports

Time Latitude Longitude Heading Altitude Ground
Speed
25-Aug-22 13:08 38.797936 -104.701548 100 6196ft 0kts
25-Aug-22 13:09 38.797936 -104.701548 100 6196ft 0kts
25-Aug-22 13:10 38.797936 -104.701548 100 6196ft 0kts
25-Aug-22 13:11 38.797936 -104.701548 100 6196ft 0kts
25-Aug-22 13:12 38.797936 -104.701548 100 6196ft 0kts
25-Aug-22 13:13 38.797936 -104.701548 100 6196ft 0kts
25-Aug-22 13:14 38.797936 -104.701548 100 6196ft 0kts
25-Aug-22 13:15 38.797936 -104.701548 100 6196ft 0kts
25-Aug-22 13:16 38.797936 -104.701548 100 6196ft 0kts
25-Aug-22 13:17 38.797936 -104.701548 100 6196ft 0kts
25-Aug-22 13:18 38.797936 -104.701548 100 6196ft 0kts
25-Aug-22 13:19 38.797936 -104.701548 100 6196ft 0kts
25-Aug-22 13:20 38.797936 -104.701548 100 6196ft 0kts
25-Aug-22 13:21 38.797936 -104.701548 100 6196ft 0kts
25-Aug-22 13:22 38.797941 -104.701595 115 6196ft 0kts
25-Aug-22 13:23 38.798133 -104.702188 121 6196ft 2kts
25-Aug-22 13:24 38.798450 -104.702796 123 6196ft 0kts
25-Aug-22 13:25 38.798344 -104.702951 358 6196ft 0kts
25-Aug-22 13:26 38.798345 -104.702951 358 6196ft 0kts
25-Aug-22 13:27 38.798520 -104.702955 358 6196ft 5kts
25-Aug-22 13:28 38.799367 -104.702940 6 6196ft 0kts
25-Aug-22 13:29 38.801708 -104.700971 358 6196ft 13kts
25-Aug-22 13:30 38.803108 -104.696845 89 6196ft 19kts
25-Aug-22 13:31 38.803128 -104.689840 89 6196ft 19kts
25-Aug-22 13:32 38.805251 -104.687652 359 6196ft 14kts
25-Aug-22 13:33 38.809852 -104.687652 359 6196ft 17kts
25-Aug-22 13:34 38.814721 -104.687639 0 6196ft 17kts
25-Aug-22 13:35 38.815922 -104.687140 87 6196ft 0kts
25-Aug-22 13:36 38.815915 -104.686044 107 6196ft 9kts
25-Aug-22 13:37 38.791625 -104.685800 180 6307ft 184kts
25-Aug-22 13:38 38.740786 -104.686813 182 8624ft 178kts
25-Aug-22 13:39 38.708441 -104.653558 68 10032ft 194kts
25-Aug-22 13:40 38.746702 -104.600707 38 11667ft 197kts
25-Aug-22 13:41 38.794956 -104.544186 40 11962ft 289kts
25-Aug-22 13:42 38.860537 -104.465575 40 11953ft 330kts
25-Aug-22 13:43 38.933662 -104.399213 8 11949ft 322kts
25-Aug-22 13:44 39.022440 -104.393996 359 11953ft 321kts
25-Aug-22 13:45 39.114180 -104.389712 359 11953ft 331kts
25-Aug-22 13:46 39.205503 -104.382228 6 11956ft 331kts
25-Aug-22 13:47 39.295464 -104.397121 346 11952ft 326kts
25-Aug-22 13:48 39.384326 -104.419220 346 11952ft 326kts
25-Aug-22 13:50 39.473160 -104.441408 346 11952ft 326kts
25-Aug-22 13:51 39.562062 -104.463697 346 11952ft 326kts
25-Aug-22 13:52 39.650890 -104.485959 346 11957ft 326kts
25-Aug-22 13:53 39.740092 -104.508124 346 11961ft 326kts
25-Aug-22 13:54 39.828934 -104.516202 357 11041ft 294kts
25-Aug-22 13:55 39.908320 -104.517152 357 11026ft 268kts
25-Aug-22 13:56 39.978995 -104.517737 357 9970ft 255kts
25-Aug-22 13:57 40.050053 -104.518849 357 9029ft 245kts
25-Aug-22 13:58 40.100301 -104.552625 269 8610ft 218kts
25-Aug-22 13:59 40.099376 -104.630357 255 8037ft 198kts
25-Aug-22 14:00 40.059064 -104.667831 207 7994ft 158kts
25-Aug-22 14:01 40.017308 -104.684336 185 7768ft 157kts
25-Aug-22 14:02 39.974137 -104.685917 181 6960ft 154kts
25-Aug-22 14:03 39.930520 -104.686398 180 6142ft 158kts
25-Aug-22 14:04 39.887266 -104.686890 180 5444ft 137kts
25-Aug-22 14:05 39.868484 -104.686827 139 5443ft 26kts

Navigation Log

Ident Type
Flight plan parsing failed, navigation log unavailable